<?xml version="1.0" encoding="UTF-8" standalone="no" ?>
<gpx xmlns="http://www.topografix.com/GPX/1/1" xmlns:xsi="http://www.w3.org/2001/XMLSchema-instance" xsi:schemaLocation="http://www.topografix.com/GPX/1/1 http://www.topografix.com/GPX/1/1/gpx.xsd" version="1.1" creator="VisuGPX - https://www.visugpx.com">
  <metadata>
    <name>Fête du club 4 juillet</name>
  </metadata>
  <trk>
    <name><![CDATA[4664670-samedi matin 2]]></name>
    <trkseg>
      <trkpt lat="46.27463" lon="-0.72182">
        <ele>7</ele>
        <time>2021-05-22T07:34:10Z</time>
      </trkpt>
      <trkpt lat="46.27572" lon="-0.72032">
        <ele>4</ele>
        <time>2021-05-22T07:37:31Z</time>
      </trkpt>
      <trkpt lat="46.27557" lon="-0.7197">
        <ele>3</ele>
        <time>2021-05-22T07:38:31Z</time>
      </trkpt>
      <trkpt lat="46.27471" lon="-0.71957">
        <ele>3</ele>
        <time>2021-05-22T07:40:27Z</time>
      </trkpt>
      <trkpt lat="46.27619" lon="-0.71758">
        <ele>3</ele>
        <time>2021-05-22T07:44:56Z</time>
      </trkpt>
      <trkpt lat="46.27652" lon="-0.71792">
        <ele>2</ele>
        <time>2021-05-22T07:45:50Z</time>
      </trkpt>
      <trkpt lat="46.27732" lon="-0.71687">
        <ele>5</ele>
        <time>2021-05-22T07:48:15Z</time>
      </trkpt>
      <trkpt lat="46.27665" lon="-0.71655">
        <ele>3</ele>
        <time>2021-05-22T07:49:49Z</time>
      </trkpt>
      <trkpt lat="46.2744" lon="-0.71502">
        <ele>4</ele>
        <time>2021-05-22T07:55:20Z</time>
      </trkpt>
      <trkpt lat="46.27385" lon="-0.71494">
        <ele>4</ele>
        <time>2021-05-22T07:56:34Z</time>
      </trkpt>
      <trkpt lat="46.27297" lon="-0.71275">
        <ele>6</ele>
        <time>2021-05-22T08:00:28Z</time>
      </trkpt>
      <trkpt lat="46.27511" lon="-0.71245">
        <ele>7</ele>
        <time>2021-05-22T08:05:15Z</time>
      </trkpt>
      <trkpt lat="46.27607" lon="-0.7114">
        <ele>7</ele>
        <time>2021-05-22T08:07:55Z</time>
      </trkpt>
      <trkpt lat="46.27641" lon="-0.71185">
        <ele>7</ele>
        <time>2021-05-22T08:08:57Z</time>
      </trkpt>
      <trkpt lat="46.27804" lon="-0.71045">
        <ele>6</ele>
        <time>2021-05-22T08:13:10Z</time>
      </trkpt>
      <trkpt lat="46.28005" lon="-0.70893">
        <ele>6</ele>
        <time>2021-05-22T08:18:13Z</time>
      </trkpt>
      <trkpt lat="46.28088" lon="-0.71047">
        <ele>5</ele>
        <time>2021-05-22T08:21:13Z</time>
      </trkpt>
      <trkpt lat="46.28149" lon="-0.71157">
        <ele>3</ele>
        <time>2021-05-22T08:23:23Z</time>
      </trkpt>
      <trkpt lat="46.28169" lon="-0.71253">
        <ele>3</ele>
        <time>2021-05-22T08:24:55Z</time>
      </trkpt>
      <trkpt lat="46.28224" lon="-0.71337">
        <ele>4</ele>
        <time>2021-05-22T08:26:42Z</time>
      </trkpt>
      <trkpt lat="46.2827" lon="-0.71472">
        <ele>4</ele>
        <time>2021-05-22T08:29:01Z</time>
      </trkpt>
      <trkpt lat="46.28399" lon="-0.7168">
        <ele>6</ele>
        <time>2021-05-22T08:33:18Z</time>
      </trkpt>
      <trkpt lat="46.2853" lon="-0.71831">
        <ele>4</ele>
        <time>2021-05-22T08:37:02Z</time>
      </trkpt>
      <trkpt lat="46.2857" lon="-0.71794">
        <ele>4</ele>
        <time>2021-05-22T08:38:05Z</time>
      </trkpt>
      <trkpt lat="46.28579" lon="-0.71846">
        <ele>3</ele>
        <time>2021-05-22T08:38:55Z</time>
      </trkpt>
      <trkpt lat="46.28616" lon="-0.71807">
        <ele>4</ele>
        <time>2021-05-22T08:39:56Z</time>
      </trkpt>
      <trkpt lat="46.28675" lon="-0.71916">
        <ele>5</ele>
        <time>2021-05-22T08:42:04Z</time>
      </trkpt>
      <trkpt lat="46.28786" lon="-0.72142">
        <ele>5</ele>
        <time>2021-05-22T08:46:19Z</time>
      </trkpt>
      <trkpt lat="46.28881" lon="-0.72056">
        <ele>6</ele>
        <time>2021-05-22T08:48:49Z</time>
      </trkpt>
      <trkpt lat="46.28927" lon="-0.71972">
        <ele>4</ele>
        <time>2021-05-22T08:50:28Z</time>
      </trkpt>
      <trkpt lat="46.29055" lon="-0.7218">
        <ele>5</ele>
        <time>2021-05-22T08:54:44Z</time>
      </trkpt>
      <trkpt lat="46.29103" lon="-0.72292">
        <ele>6</ele>
        <time>2021-05-22T08:56:46Z</time>
      </trkpt>
      <trkpt lat="46.29143" lon="-0.72343">
        <ele>6</ele>
        <time>2021-05-22T08:57:57Z</time>
      </trkpt>
      <trkpt lat="46.29161" lon="-0.72408">
        <ele>6</ele>
        <time>2021-05-22T08:59:02Z</time>
      </trkpt>
      <trkpt lat="46.29271" lon="-0.72534">
        <ele>4</ele>
        <time>2021-05-22T09:02:09Z</time>
      </trkpt>
      <trkpt lat="46.29281" lon="-0.72586">
        <ele>5</ele>
        <time>2021-05-22T09:02:59Z</time>
      </trkpt>
      <trkpt lat="46.29406" lon="-0.7273">
        <ele>4</ele>
        <time>2021-05-22T09:06:32Z</time>
      </trkpt>
      <trkpt lat="46.29489" lon="-0.72646">
        <ele>3</ele>
        <time>2021-05-22T09:08:47Z</time>
      </trkpt>
      <trkpt lat="46.29621" lon="-0.72749">
        <ele>5</ele>
        <time>2021-05-22T09:12:07Z</time>
      </trkpt>
      <trkpt lat="46.29683" lon="-0.72839">
        <ele>5</ele>
        <time>2021-05-22T09:14:04Z</time>
      </trkpt>
      <trkpt lat="46.29658" lon="-0.72891">
        <ele>4</ele>
        <time>2021-05-22T09:15:03Z</time>
      </trkpt>
      <trkpt lat="46.29705" lon="-0.72946">
        <ele>4</ele>
        <time>2021-05-22T09:16:23Z</time>
      </trkpt>
      <trkpt lat="46.29738" lon="-0.72886">
        <ele>5</ele>
        <time>2021-05-22T09:17:34Z</time>
      </trkpt>
      <trkpt lat="46.29791" lon="-0.73002">
        <ele>4</ele>
        <time>2021-05-22T09:19:42Z</time>
      </trkpt>
      <trkpt lat="46.29793" lon="-0.73112">
        <ele>4</ele>
        <time>2021-05-22T09:21:24Z</time>
      </trkpt>
      <trkpt lat="46.30057" lon="-0.73039">
        <ele>3</ele>
        <time>2021-05-22T09:27:22Z</time>
      </trkpt>
      <trkpt lat="46.30072" lon="-0.73088">
        <ele>3</ele>
        <time>2021-05-22T09:28:12Z</time>
      </trkpt>
      <trkpt lat="46.29811" lon="-0.73152">
        <ele>5</ele>
        <time>2021-05-22T09:34:05Z</time>
      </trkpt>
      <trkpt lat="46.29793" lon="-0.73356">
        <ele>4</ele>
        <time>2021-05-22T09:37:15Z</time>
      </trkpt>
      <trkpt lat="46.29836" lon="-0.73436">
        <ele>6</ele>
        <time>2021-05-22T09:38:48Z</time>
      </trkpt>
      <trkpt lat="46.29833" lon="-0.73483">
        <ele>8</ele>
        <time>2021-05-22T09:39:32Z</time>
      </trkpt>
      <trkpt lat="46.29926" lon="-0.73624">
        <ele>5</ele>
        <time>2021-05-22T09:42:31Z</time>
      </trkpt>
      <trkpt lat="46.29796" lon="-0.7386">
        <ele>4</ele>
        <time>2021-05-22T09:47:10Z</time>
      </trkpt>
      <trkpt lat="46.29824" lon="-0.7391">
        <ele>4</ele>
        <time>2021-05-22T09:48:09Z</time>
      </trkpt>
      <trkpt lat="46.29726" lon="-0.74038">
        <ele>6</ele>
        <time>2021-05-22T09:51:05Z</time>
      </trkpt>
      <trkpt lat="46.29556" lon="-0.73841">
        <ele>5</ele>
        <time>2021-05-22T09:55:56Z</time>
      </trkpt>
      <trkpt lat="46.29493" lon="-0.73841">
        <ele>6</ele>
        <time>2021-05-22T09:57:20Z</time>
      </trkpt>
      <trkpt lat="46.29399" lon="-0.73663">
        <ele>6</ele>
        <time>2021-05-22T10:00:46Z</time>
      </trkpt>
      <trkpt lat="46.29313" lon="-0.73577">
        <ele>5</ele>
        <time>2021-05-22T10:03:06Z</time>
      </trkpt>
      <trkpt lat="46.29197" lon="-0.73245">
        <ele>7</ele>
        <time>2021-05-22T10:08:49Z</time>
      </trkpt>
      <trkpt lat="46.29135" lon="-0.7326">
        <ele>7</ele>
        <time>2021-05-22T10:10:13Z</time>
      </trkpt>
      <trkpt lat="46.29124" lon="-0.7318">
        <ele>4</ele>
        <time>2021-05-22T10:11:28Z</time>
      </trkpt>
      <trkpt lat="46.28989" lon="-0.73062">
        <ele>5</ele>
        <time>2021-05-22T10:14:59Z</time>
      </trkpt>
      <trkpt lat="46.28794" lon="-0.72837">
        <ele>5</ele>
        <time>2021-05-22T10:20:31Z</time>
      </trkpt>
      <trkpt lat="46.28752" lon="-0.72768">
        <ele>5</ele>
        <time>2021-05-22T10:21:56Z</time>
      </trkpt>
      <trkpt lat="46.28688" lon="-0.72727">
        <ele>5</ele>
        <time>2021-05-22T10:23:30Z</time>
      </trkpt>
      <trkpt lat="46.2866" lon="-0.72667">
        <ele>3</ele>
        <time>2021-05-22T10:24:36Z</time>
      </trkpt>
      <trkpt lat="46.28616" lon="-0.72642">
        <ele>5</ele>
        <time>2021-05-22T10:25:39Z</time>
      </trkpt>
      <trkpt lat="46.28577" lon="-0.72571">
        <ele>5</ele>
        <time>2021-05-22T10:27:03Z</time>
      </trkpt>
      <trkpt lat="46.28493" lon="-0.72541">
        <ele>5</ele>
        <time>2021-05-22T10:28:58Z</time>
      </trkpt>
      <trkpt lat="46.28326" lon="-0.72283">
        <ele>4</ele>
        <time>2021-05-22T10:34:24Z</time>
      </trkpt>
      <trkpt lat="46.28254" lon="-0.72116">
        <ele>3</ele>
        <time>2021-05-22T10:37:26Z</time>
      </trkpt>
      <trkpt lat="46.28174" lon="-0.72062">
        <ele>3</ele>
        <time>2021-05-22T10:39:24Z</time>
      </trkpt>
      <trkpt lat="46.28086" lon="-0.71828">
        <ele>4</ele>
        <time>2021-05-22T10:43:29Z</time>
      </trkpt>
      <trkpt lat="46.2799" lon="-0.7174">
        <ele>5</ele>
        <time>2021-05-22T10:46:01Z</time>
      </trkpt>
      <trkpt lat="46.27931" lon="-0.71715">
        <ele>5</ele>
        <time>2021-05-22T10:47:23Z</time>
      </trkpt>
      <trkpt lat="46.27874" lon="-0.71655">
        <ele>6</ele>
        <time>2021-05-22T10:48:57Z</time>
      </trkpt>
      <trkpt lat="46.27813" lon="-0.7173">
        <ele>5</ele>
        <time>2021-05-22T10:50:44Z</time>
      </trkpt>
      <trkpt lat="46.27723" lon="-0.71678">
        <ele>4</ele>
        <time>2021-05-22T10:52:53Z</time>
      </trkpt>
      <trkpt lat="46.27649" lon="-0.71773">
        <ele>2</ele>
        <time>2021-05-22T10:55:05Z</time>
      </trkpt>
      <trkpt lat="46.2761" lon="-0.71758">
        <ele>3</ele>
        <time>2021-05-22T10:55:59Z</time>
      </trkpt>
      <trkpt lat="46.27459" lon="-0.71957">
        <ele>4</ele>
        <time>2021-05-22T11:00:32Z</time>
      </trkpt>
      <trkpt lat="46.27563" lon="-0.71994">
        <ele>4</ele>
        <time>2021-05-22T11:02:55Z</time>
      </trkpt>
      <trkpt lat="46.27578" lon="-0.72062">
        <ele>3</ele>
        <time>2021-05-22T11:04:01Z</time>
      </trkpt>
      <trkpt lat="46.27456" lon="-0.72163">
        <ele>7</ele>
        <time>2021-05-22T11:07:08Z</time>
      </trkpt>
    </trkseg>
  </trk>
</gpx>